sensor_id;sensor_type;location;lat;lon;timestamp;P1;durP1;ratioP1;P2;durP2;ratioP2
595;SDS011;19946;49.306;11.350;2023-01-09T00:00:46;10.10;;;9.90;;
595;SDS011;19946;49.306;11.350;2023-01-09T00:03:47;9.63;;;9.53;;
595;SDS011;19946;49.306;11.350;2023-01-09T00:06:48;10.10;;;9.90;;
595;SDS011;19946;49.306;11.350;2023-01-09T00:09:52;12.17;;;11.97;;
595;SDS011;19946;49.306;11.350;2023-01-09T00:12:55;11.60;;;11.40;;
595;SDS011;19946;49.306;11.350;2023-01-09T00:15:56;10.17;;;9.97;;
595;SDS011;19946;49.306;11.350;2023-01-09T00:18:56;12.17;;;11.97;;
595;SDS011;19946;49.306;11.350;2023-01-09T00:21:57;10.90;;;10.70;;
595;SDS011;19946;49.306;11.350;2023-01-09T00:24:58;11.20;;;11.00;;
595;SDS011;19946;49.306;11.350;2023-01-09T00:27:58;10.13;;;9.93;;
595;SDS011;19946;49.306;11.350;2023-01-09T00:30:59;7.93;;;7.83;;
595;SDS011;19946;49.306;11.350;2023-01-09T00:34:07;6.73;;;6.63;;
595;SDS011;19946;49.306;11.350;2023-01-09T00:37:19;8.70;;;8.60;;
595;SDS011;19946;49.306;11.350;2023-01-09T00:40:26;10.20;;;10.00;;
595;SDS011;19946;49.306;11.350;2023-01-09T00:43:31;9.37;;;9.27;;
595;SDS011;19946;49.306;11.350;2023-01-09T00:46:38;8.43;;;8.33;;
595;SDS011;19946;49.306;11.350;2023-01-09T00:49:43;9.50;;;9.40;;
595;SDS011;19946;49.306;11.350;2023-01-09T00:52:45;9.40;;;9.30;;
595;SDS011;19946;49.306;11.350;2023-01-09T00:55:46;10.00;;;9.80;;
595;SDS011;19946;49.306;11.350;2023-01-09T00:58:48;11.70;;;11.50;;
595;SDS011;19946;49.306;11.350;2023-01-09T01:01:52;13.80;;;13.50;;
595;SDS011;19946;49.306;11.350;2023-01-09T01:04:52;12.70;;;12.50;;
595;SDS011;19946;49.306;11.350;2023-01-09T01:08:13;11.63;;;11.43;;
595;SDS011;19946;49.306;11.350;2023-01-09T01:11:15;11.40;;;11.20;;
595;SDS011;19946;49.306;11.350;2023-01-09T01:14:16;12.17;;;11.97;;
595;SDS011;19946;49.306;11.350;2023-01-09T01:17:16;9.50;;;9.40;;
595;SDS011;19946;49.306;11.350;2023-01-09T01:20:17;11.50;;;11.30;;
595;SDS011;19946;49.306;11.350;2023-01-09T01:23:17;11.73;;;11.53;;
595;SDS011;19946;49.306;11.350;2023-01-09T01:26:18;11.40;;;11.20;;
595;SDS011;19946;49.306;11.350;2023-01-09T01:29:18;11.97;;;11.77;;
595;SDS011;19946;49.306;11.350;2023-01-09T01:32:18;13.23;;;12.93;;
595;SDS011;19946;49.306;11.350;2023-01-09T01:35:19;8.53;;;8.43;;
595;SDS011;19946;49.306;11.350;2023-01-09T01:38:19;8.07;;;7.97;;
595;SDS011;19946;49.306;11.350;2023-01-09T01:41:20;7.13;;;7.03;;
595;SDS011;19946;49.306;11.350;2023-01-09T01:51:02;4.10;;;4.10;;
595;SDS011;19946;49.306;11.350;2023-01-09T01:54:06;4.17;;;4.17;;
595;SDS011;19946;49.306;11.350;2023-01-09T01:57:11;2.30;;;2.30;;
595;SDS011;19946;49.306;11.350;2023-01-09T02:00:12;2.33;;;2.33;;
595;SDS011;19946;49.306;11.350;2023-01-09T02:03:16;1.40;;;1.40;;
595;SDS011;19946;49.306;11.350;2023-01-09T02:06:21;1.00;;;1.00;;
595;SDS011;19946;49.306;11.350;2023-01-09T02:09:22;1.10;;;1.10;;
595;SDS011;19946;49.306;11.350;2023-01-09T02:12:24;0.93;;;0.93;;
595;SDS011;19946;49.306;11.350;2023-01-09T02:15:28;0.80;;;0.80;;
595;SDS011;19946;49.306;11.350;2023-01-09T02:29:04;2.40;;;2.40;;
595;SDS011;19946;49.306;11.350;2023-01-09T02:38:58;2.30;;;2.30;;
595;SDS011;19946;49.306;11.350;2023-01-09T02:42:07;2.90;;;2.90;;
595;SDS011;19946;49.306;11.350;2023-01-09T02:45:13;3.10;;;3.10;;
595;SDS011;19946;49.306;11.350;2023-01-09T02:48:14;2.83;;;2.83;;
595;SDS011;19946;49.306;11.350;2023-01-09T02:51:19;3.47;;;3.47;;
595;SDS011;19946;49.306;11.350;2023-01-09T02:54:33;4.00;;;4.00;;
595;SDS011;19946;49.306;11.350;2023-01-09T02:57:53;4.57;;;4.57;;
595;SDS011;19946;49.306;11.350;2023-01-09T03:04:58;4.30;;;4.30;;
595;SDS011;19946;49.306;11.350;2023-01-09T03:08:18;4.10;;;4.10;;
595;SDS011;19946;49.306;11.350;2023-01-09T03:11:22;4.10;;;4.10;;
595;SDS011;19946;49.306;11.350;2023-01-09T03:14:30;4.50;;;4.50;;
595;SDS011;19946;49.306;11.350;2023-01-09T03:17:37;4.27;;;4.27;;
595;SDS011;19946;49.306;11.350;2023-01-09T03:20:42;4.53;;;4.53;;
595;SDS011;19946;49.306;11.350;2023-01-09T03:26:46;4.27;;;4.27;;
595;SDS011;19946;49.306;11.350;2023-01-09T03:29:47;4.00;;;4.00;;
595;SDS011;19946;49.306;11.350;2023-01-09T03:32:47;4.90;;;4.90;;
595;SDS011;19946;49.306;11.350;2023-01-09T03:35:48;4.10;;;4.10;;
595;SDS011;19946;49.306;11.350;2023-01-09T03:38:48;4.63;;;4.63;;
595;SDS011;19946;49.306;11.350;2023-01-09T03:41:50;5.00;;;5.00;;
595;SDS011;19946;49.306;11.350;2023-01-09T03:44:51;5.00;;;5.00;;
595;SDS011;19946;49.306;11.350;2023-01-09T03:47:51;4.00;;;4.00;;
595;SDS011;19946;49.306;11.350;2023-01-09T03:50:52;4.73;;;4.73;;
595;SDS011;19946;49.306;11.350;2023-01-09T03:53:54;3.97;;;3.97;;
595;SDS011;19946;49.306;11.350;2023-01-09T03:56:54;3.03;;;3.03;;
595;SDS011;19946;49.306;11.350;2023-01-09T03:59:55;2.70;;;2.70;;
595;SDS011;19946;49.306;11.350;2023-01-09T04:02:55;3.53;;;3.53;;
595;SDS011;19946;49.306;11.350;2023-01-09T04:05:55;3.47;;;3.47;;
595;SDS011;19946;49.306;11.350;2023-01-09T04:08:56;3.00;;;3.00;;
595;SDS011;19946;49.306;11.350;2023-01-09T04:11:56;3.40;;;3.40;;
595;SDS011;19946;49.306;11.350;2023-01-09T04:14:57;3.17;;;3.17;;
595;SDS011;19946;49.306;11.350;2023-01-09T04:17:57;3.90;;;3.90;;
595;SDS011;19946;49.306;11.350;2023-01-09T04:20:58;5.70;;;5.70;;
595;SDS011;19946;49.306;11.350;2023-01-09T04:23:58;5.40;;;5.40;;
595;SDS011;19946;49.306;11.350;2023-01-09T04:26:58;6.47;;;6.37;;
595;SDS011;19946;49.306;11.350;2023-01-09T04:29:59;6.00;;;5.90;;
595;SDS011;19946;49.306;11.350;2023-01-09T04:32:59;6.63;;;6.53;;
595;SDS011;19946;49.306;11.350;2023-01-09T04:36:00;6.90;;;6.80;;
595;SDS011;19946;49.306;11.350;2023-01-09T04:39:00;6.80;;;6.70;;
595;SDS011;19946;49.306;11.350;2023-01-09T04:42:01;6.53;;;6.43;;
595;SDS011;19946;49.306;11.350;2023-01-09T04:45:02;5.20;;;5.20;;
595;SDS011;19946;49.306;11.350;2023-01-09T04:48:04;7.00;;;6.90;;
595;SDS011;19946;49.306;11.350;2023-01-09T04:51:04;7.00;;;6.90;;
595;SDS011;19946;49.306;11.350;2023-01-09T04:54:06;8.20;;;8.10;;
595;SDS011;19946;49.306;11.350;2023-01-09T04:57:06;7.73;;;7.63;;
595;SDS011;19946;49.306;11.350;2023-01-09T05:00:07;8.60;;;8.50;;
595;SDS011;19946;49.306;11.350;2023-01-09T05:03:11;8.43;;;8.33;;
595;SDS011;19946;49.306;11.350;2023-01-09T05:06:11;5.60;;;5.60;;
595;SDS011;19946;49.306;11.350;2023-01-09T05:09:11;4.70;;;4.70;;
595;SDS011;19946;49.306;11.350;2023-01-09T05:12:12;5.07;;;5.07;;
595;SDS011;19946;49.306;11.350;2023-01-09T05:15:13;5.53;;;5.53;;
595;SDS011;19946;49.306;11.350;2023-01-09T05:18:15;6.50;;;6.40;;
595;SDS011;19946;49.306;11.350;2023-01-09T05:21:17;6.67;;;6.57;;
595;SDS011;19946;49.306;11.350;2023-01-09T05:24:19;6.80;;;6.70;;
595;SDS011;19946;49.306;11.350;2023-01-09T05:27:23;5.67;;;5.67;;
595;SDS011;19946;49.306;11.350;2023-01-09T05:30:24;5.10;;;5.10;;
595;SDS011;19946;49.306;11.350;2023-01-09T05:33:24;4.30;;;4.30;;
595;SDS011;19946;49.306;11.350;2023-01-09T05:36:24;4.00;;;4.00;;
595;SDS011;19946;49.306;11.350;2023-01-09T05:39:28;3.67;;;3.67;;
595;SDS011;19946;49.306;11.350;2023-01-09T05:42:32;5.07;;;5.07;;
595;SDS011;19946;49.306;11.350;2023-01-09T05:45:32;8.80;;;8.70;;
595;SDS011;19946;49.306;11.350;2023-01-09T05:48:34;8.90;;;8.80;;
595;SDS011;19946;49.306;11.350;2023-01-09T05:51:40;10.20;;;10.00;;
595;SDS011;19946;49.306;11.350;2023-01-09T05:54:43;12.07;;;11.87;;
595;SDS011;19946;49.306;11.350;2023-01-09T05:57:57;11.47;;;11.27;;
595;SDS011;19946;49.306;11.350;2023-01-09T06:01:08;12.27;;;12.07;;
595;SDS011;19946;49.306;11.350;2023-01-09T06:04:15;8.87;;;8.77;;
595;SDS011;19946;49.306;11.350;2023-01-09T06:07:18;6.83;;;6.73;;
595;SDS011;19946;49.306;11.350;2023-01-09T06:10:28;4.70;;;4.70;;
595;SDS011;19946;49.306;11.350;2023-01-09T06:13:32;4.40;;;4.40;;
595;SDS011;19946;49.306;11.350;2023-01-09T06:16:36;2.90;;;2.90;;
595;SDS011;19946;49.306;11.350;2023-01-09T06:19:40;3.50;;;3.50;;
595;SDS011;19946;49.306;11.350;2023-01-09T06:22:54;3.07;;;3.07;;
595;SDS011;19946;49.306;11.350;2023-01-09T06:25:55;2.80;;;2.80;;
595;SDS011;19946;49.306;11.350;2023-01-09T06:28:55;3.50;;;3.50;;
595;SDS011;19946;49.306;11.350;2023-01-09T06:31:57;2.50;;;2.50;;
595;SDS011;19946;49.306;11.350;2023-01-09T06:34:57;2.27;;;2.27;;
595;SDS011;19946;49.306;11.350;2023-01-09T06:37:58;2.90;;;2.90;;
595;SDS011;19946;49.306;11.350;2023-01-09T06:41:02;3.00;;;3.00;;
595;SDS011;19946;49.306;11.350;2023-01-09T06:44:02;3.30;;;3.30;;
595;SDS011;19946;49.306;11.350;2023-01-09T06:47:05;2.90;;;2.90;;
595;SDS011;19946;49.306;11.350;2023-01-09T06:50:05;3.17;;;3.17;;
595;SDS011;19946;49.306;11.350;2023-01-09T06:53:11;4.10;;;4.10;;
595;SDS011;19946;49.306;11.350;2023-01-09T06:56:11;5.17;;;5.17;;
595;SDS011;19946;49.306;11.350;2023-01-09T06:59:15;5.60;;;5.60;;
595;SDS011;19946;49.306;11.350;2023-01-09T07:02:19;6.63;;;6.53;;
595;SDS011;19946;49.306;11.350;2023-01-09T07:05:21;7.03;;;6.93;;
595;SDS011;19946;49.306;11.350;2023-01-09T07:34:46;5.20;;;5.20;;
595;SDS011;19946;49.306;11.350;2023-01-09T07:37:50;5.50;;;5.50;;
595;SDS011;19946;49.306;11.350;2023-01-09T07:40:53;6.03;;;5.93;;
595;SDS011;19946;49.306;11.350;2023-01-09T07:43:55;4.00;;;4.00;;
595;SDS011;19946;49.306;11.350;2023-01-09T07:46:56;3.13;;;3.13;;
595;SDS011;19946;49.306;11.350;2023-01-09T10:17:27;5.10;;;5.10;;
595;SDS011;19946;49.306;11.350;2023-01-09T10:20:37;3.57;;;3.57;;
595;SDS011;19946;49.306;11.350;2023-01-09T10:24:03;3.73;;;3.73;;
595;SDS011;19946;49.306;11.350;2023-01-09T10:27:15;3.50;;;3.50;;
595;SDS011;19946;49.306;11.350;2023-01-09T10:30:44;3.77;;;3.77;;
595;SDS011;19946;49.306;11.350;2023-01-09T10:34:01;3.03;;;3.03;;
595;SDS011;19946;49.306;11.350;2023-01-09T10:37:36;3.93;;;3.93;;
595;SDS011;19946;49.306;11.350;2023-01-09T10:40:43;3.53;;;3.53;;
595;SDS011;19946;49.306;11.350;2023-01-09T10:46:59;3.47;;;3.47;;
595;SDS011;19946;49.306;11.350;2023-01-09T10:50:01;4.80;;;4.80;;
595;SDS011;19946;49.306;11.350;2023-01-09T10:53:22;4.27;;;4.27;;
595;SDS011;19946;49.306;11.350;2023-01-09T10:56:26;4.60;;;4.60;;
595;SDS011;19946;49.306;11.350;2023-01-09T10:59:29;3.80;;;3.80;;
595;SDS011;19946;49.306;11.350;2023-01-09T11:02:31;3.33;;;3.33;;
595;SDS011;19946;49.306;11.350;2023-01-09T11:05:33;2.90;;;2.90;;
595;SDS011;19946;49.306;11.350;2023-01-09T11:08:39;3.70;;;3.70;;
595;SDS011;19946;49.306;11.350;2023-01-09T11:11:41;4.40;;;4.40;;
595;SDS011;19946;49.306;11.350;2023-01-09T11:14:42;3.40;;;3.40;;
595;SDS011;19946;49.306;11.350;2023-01-09T11:17:42;3.10;;;3.10;;
595;SDS011;19946;49.306;11.350;2023-01-09T11:20:43;3.37;;;3.37;;
595;SDS011;19946;49.306;11.350;2023-01-09T11:23:43;3.03;;;3.03;;
595;SDS011;19946;49.306;11.350;2023-01-09T11:26:47;3.70;;;3.70;;
595;SDS011;19946;49.306;11.350;2023-01-09T11:33:33;3.10;;;3.10;;
595;SDS011;19946;49.306;11.350;2023-01-09T11:36:36;4.00;;;4.00;;
595;SDS011;19946;49.306;11.350;2023-01-09T11:39:37;4.20;;;4.20;;
595;SDS011;19946;49.306;11.350;2023-01-09T11:42:40;4.93;;;4.93;;
595;SDS011;19946;49.306;11.350;2023-01-09T11:46:02;4.30;;;4.30;;
595;SDS011;19946;49.306;11.350;2023-01-09T11:49:27;4.43;;;4.43;;
595;SDS011;19946;49.306;11.350;2023-01-09T11:52:29;3.20;;;3.20;;
595;SDS011;19946;49.306;11.350;2023-01-09T11:55:29;4.30;;;4.30;;
595;SDS011;19946;49.306;11.350;2023-01-09T11:58:31;4.20;;;4.20;;
595;SDS011;19946;49.306;11.350;2023-01-09T12:01:37;4.60;;;4.60;;
595;SDS011;19946;49.306;11.350;2023-01-09T12:04:55;4.73;;;4.73;;
595;SDS011;19946;49.306;11.350;2023-01-09T12:08:06;3.80;;;3.80;;
595;SDS011;19946;49.306;11.350;2023-01-09T12:11:23;3.50;;;3.50;;
595;SDS011;19946;49.306;11.350;2023-01-09T12:14:31;4.27;;;4.27;;
595;SDS011;19946;49.306;11.350;2023-01-09T12:17:47;3.70;;;3.70;;
595;SDS011;19946;49.306;11.350;2023-01-09T12:27:54;3.20;;;3.20;;
595;SDS011;19946;49.306;11.350;2023-01-09T12:31:25;4.03;;;4.03;;
595;SDS011;19946;49.306;11.350;2023-01-09T12:37:54;2.97;;;2.97;;
595;SDS011;19946;49.306;11.350;2023-01-09T12:47:45;3.60;;;3.60;;
595;SDS011;19946;49.306;11.350;2023-01-09T12:57:42;4.00;;;4.00;;
595;SDS011;19946;49.306;11.350;2023-01-09T13:00:48;3.37;;;3.37;;
595;SDS011;19946;49.306;11.350;2023-01-09T13:04:11;3.87;;;3.87;;
595;SDS011;19946;49.306;11.350;2023-01-09T13:07:21;4.00;;;4.00;;
595;SDS011;19946;49.306;11.350;2023-01-09T13:10:32;4.83;;;4.83;;
595;SDS011;19946;49.306;11.350;2023-01-09T13:13:45;5.00;;;5.00;;
595;SDS011;19946;49.306;11.350;2023-01-09T13:16:50;5.40;;;5.40;;
595;SDS011;19946;49.306;11.350;2023-01-09T13:19:54;4.80;;;4.80;;
595;SDS011;19946;49.306;11.350;2023-01-09T13:22:55;4.50;;;4.50;;
595;SDS011;19946;49.306;11.350;2023-01-09T13:26:00;4.60;;;4.60;;
595;SDS011;19946;49.306;11.350;2023-01-09T13:29:14;3.80;;;3.80;;
595;SDS011;19946;49.306;11.350;2023-01-09T13:35:49;5.00;;;5.00;;
595;SDS011;19946;49.306;11.350;2023-01-09T13:38:56;7.27;;;7.17;;
595;SDS011;19946;49.306;11.350;2023-01-09T13:42:01;4.60;;;4.60;;
595;SDS011;19946;49.306;11.350;2023-01-09T13:45:23;5.03;;;5.03;;
595;SDS011;19946;49.306;11.350;2023-01-09T13:48:27;6.13;;;6.03;;
595;SDS011;19946;49.306;11.350;2023-01-09T14:01:04;4.50;;;4.50;;
595;SDS011;19946;49.306;11.350;2023-01-09T14:04:32;3.90;;;3.90;;
595;SDS011;19946;49.306;11.350;2023-01-09T14:07:46;5.00;;;5.00;;
595;SDS011;19946;49.306;11.350;2023-01-09T14:10:52;4.40;;;4.40;;
595;SDS011;19946;49.306;11.350;2023-01-09T14:13:59;4.80;;;4.80;;
595;SDS011;19946;49.306;11.350;2023-01-09T14:17:04;4.23;;;4.23;;
595;SDS011;19946;49.306;11.350;2023-01-09T14:20:26;4.57;;;4.57;;
595;SDS011;19946;49.306;11.350;2023-01-09T14:23:33;4.87;;;4.87;;
595;SDS011;19946;49.306;11.350;2023-01-09T14:26:49;4.00;;;4.00;;
595;SDS011;19946;49.306;11.350;2023-01-09T14:33:35;3.90;;;3.90;;
595;SDS011;19946;49.306;11.350;2023-01-09T14:36:36;3.93;;;3.93;;
595;SDS011;19946;49.306;11.350;2023-01-09T14:39:38;3.97;;;3.97;;
595;SDS011;19946;49.306;11.350;2023-01-09T14:42:42;5.00;;;5.00;;
595;SDS011;19946;49.306;11.350;2023-01-09T14:45:45;4.73;;;4.73;;
595;SDS011;19946;49.306;11.350;2023-01-09T14:51:56;4.40;;;4.40;;
595;SDS011;19946;49.306;11.350;2023-01-09T14:55:03;5.50;;;5.50;;
595;SDS011;19946;49.306;11.350;2023-01-09T15:01:20;4.20;;;4.20;;
595;SDS011;19946;49.306;11.350;2023-01-09T15:04:28;4.30;;;4.30;;
595;SDS011;19946;49.306;11.350;2023-01-09T15:07:35;4.23;;;4.23;;
595;SDS011;19946;49.306;11.350;2023-01-09T15:10:43;3.90;;;3.90;;
595;SDS011;19946;49.306;11.350;2023-01-09T15:13:46;4.50;;;4.50;;
595;SDS011;19946;49.306;11.350;2023-01-09T15:16:49;4.97;;;4.97;;
595;SDS011;19946;49.306;11.350;2023-01-09T15:19:49;4.27;;;4.27;;
595;SDS011;19946;49.306;11.350;2023-01-09T15:22:51;3.87;;;3.87;;
595;SDS011;19946;49.306;11.350;2023-01-09T15:25:52;4.30;;;4.30;;
595;SDS011;19946;49.306;11.350;2023-01-09T15:28:53;4.20;;;4.20;;
595;SDS011;19946;49.306;11.350;2023-01-09T15:32:02;4.20;;;4.20;;
595;SDS011;19946;49.306;11.350;2023-01-09T15:35:11;3.67;;;3.67;;
595;SDS011;19946;49.306;11.350;2023-01-09T15:38:13;6.47;;;6.37;;
595;SDS011;19946;49.306;11.350;2023-01-09T15:41:24;5.67;;;5.67;;
595;SDS011;19946;49.306;11.350;2023-01-09T15:44:44;8.90;;;8.80;;
595;SDS011;19946;49.306;11.350;2023-01-09T15:47:47;7.90;;;7.80;;
595;SDS011;19946;49.306;11.350;2023-01-09T15:50:49;8.10;;;8.00;;
595;SDS011;19946;49.306;11.350;2023-01-09T15:54:14;9.33;;;9.23;;
595;SDS011;19946;49.306;11.350;2023-01-09T16:00:30;11.10;;;10.90;;
595;SDS011;19946;49.306;11.350;2023-01-09T16:03:36;15.77;;;15.47;;
595;SDS011;19946;49.306;11.350;2023-01-09T16:06:44;16.70;;;16.30;;
595;SDS011;19946;49.306;11.350;2023-01-09T16:09:50;12.67;;;12.47;;
595;SDS011;19946;49.306;11.350;2023-01-09T16:12:51;12.60;;;12.40;;
595;SDS011;19946;49.306;11.350;2023-01-09T16:15:53;14.33;;;14.03;;
595;SDS011;19946;49.306;11.350;2023-01-09T16:18:56;16.07;;;15.73;;
595;SDS011;19946;49.306;11.350;2023-01-09T16:21:59;13.17;;;12.87;;
595;SDS011;19946;49.306;11.350;2023-01-09T16:25:01;10.60;;;10.40;;
595;SDS011;19946;49.306;11.350;2023-01-09T16:28:23;19.20;;;18.80;;
595;SDS011;19946;49.306;11.350;2023-01-09T16:31:27;16.70;;;16.30;;
595;SDS011;19946;49.306;11.350;2023-01-09T16:34:29;17.53;;;17.13;;
595;SDS011;19946;49.306;11.350;2023-01-09T16:37:29;17.73;;;17.33;;
595;SDS011;19946;49.306;11.350;2023-01-09T16:40:31;15.77;;;15.47;;
595;SDS011;19946;49.306;11.350;2023-01-09T16:43:35;14.17;;;13.87;;
595;SDS011;19946;49.306;11.350;2023-01-09T16:46:37;13.13;;;12.83;;
595;SDS011;19946;49.306;11.350;2023-01-09T16:49:40;10.57;;;10.37;;
595;SDS011;19946;49.306;11.350;2023-01-09T16:52:40;10.10;;;9.90;;
595;SDS011;19946;49.306;11.350;2023-01-09T16:55:41;8.77;;;8.67;;
595;SDS011;19946;49.306;11.350;2023-01-09T16:58:41;10.00;;;9.80;;
595;SDS011;19946;49.306;11.350;2023-01-09T17:01:42;7.30;;;7.20;;
595;SDS011;19946;49.306;11.350;2023-01-09T17:04:42;9.23;;;9.13;;
595;SDS011;19946;49.306;11.350;2023-01-09T17:07:43;8.90;;;8.80;;
595;SDS011;19946;49.306;11.350;2023-01-09T17:10:43;9.40;;;9.30;;
595;SDS011;19946;49.306;11.350;2023-01-09T17:13:43;11.30;;;11.10;;
595;SDS011;19946;49.306;11.350;2023-01-09T17:16:45;10.27;;;10.07;;
595;SDS011;19946;49.306;11.350;2023-01-09T17:19:46;8.43;;;8.33;;
595;SDS011;19946;49.306;11.350;2023-01-09T17:22:46;8.20;;;8.10;;
595;SDS011;19946;49.306;11.350;2023-01-09T17:25:50;5.30;;;5.30;;
595;SDS011;19946;49.306;11.350;2023-01-09T17:29:14;6.43;;;6.33;;
595;SDS011;19946;49.306;11.350;2023-01-09T17:32:15;8.07;;;7.97;;
595;SDS011;19946;49.306;11.350;2023-01-09T17:35:16;8.13;;;8.03;;
595;SDS011;19946;49.306;11.350;2023-01-09T17:38:17;8.40;;;8.30;;
595;SDS011;19946;49.306;11.350;2023-01-09T17:41:21;6.20;;;6.10;;
595;SDS011;19946;49.306;11.350;2023-01-09T17:44:24;6.37;;;6.27;;
595;SDS011;19946;49.306;11.350;2023-01-09T17:47:25;7.17;;;7.07;;
595;SDS011;19946;49.306;11.350;2023-01-09T17:50:25;7.80;;;7.70;;
595;SDS011;19946;49.306;11.350;2023-01-09T17:53:28;9.50;;;9.40;;
595;SDS011;19946;49.306;11.350;2023-01-09T17:56:30;6.93;;;6.83;;
595;SDS011;19946;49.306;11.350;2023-01-09T17:59:33;9.13;;;9.03;;
595;SDS011;19946;49.306;11.350;2023-01-09T18:02:34;7.90;;;7.80;;
595;SDS011;19946;49.306;11.350;2023-01-09T18:05:34;8.40;;;8.30;;
595;SDS011;19946;49.306;11.350;2023-01-09T18:08:36;7.00;;;6.90;;
595;SDS011;19946;49.306;11.350;2023-01-09T18:11:37;7.30;;;7.20;;
595;SDS011;19946;49.306;11.350;2023-01-09T18:14:39;6.77;;;6.67;;
595;SDS011;19946;49.306;11.350;2023-01-09T18:17:40;7.70;;;7.60;;
595;SDS011;19946;49.306;11.350;2023-01-09T18:20:41;8.00;;;7.90;;
595;SDS011;19946;49.306;11.350;2023-01-09T18:23:42;8.10;;;8.00;;
595;SDS011;19946;49.306;11.350;2023-01-09T18:26:43;9.17;;;9.07;;
595;SDS011;19946;49.306;11.350;2023-01-09T18:29:43;8.27;;;8.17;;
595;SDS011;19946;49.306;11.350;2023-01-09T18:32:44;7.73;;;7.63;;
595;SDS011;19946;49.306;11.350;2023-01-09T18:35:45;6.80;;;6.70;;
595;SDS011;19946;49.306;11.350;2023-01-09T18:38:49;6.50;;;6.40;;
595;SDS011;19946;49.306;11.350;2023-01-09T18:41:51;5.43;;;5.43;;
595;SDS011;19946;49.306;11.350;2023-01-09T18:44:51;6.23;;;6.13;;
595;SDS011;19946;49.306;11.350;2023-01-09T18:47:51;5.80;;;5.80;;
595;SDS011;19946;49.306;11.350;2023-01-09T18:51:00;5.23;;;5.23;;
595;SDS011;19946;49.306;11.350;2023-01-09T18:54:01;6.10;;;6.00;;
595;SDS011;19946;49.306;11.350;2023-01-09T18:57:03;7.50;;;7.40;;
595;SDS011;19946;49.306;11.350;2023-01-09T19:00:03;7.07;;;6.97;;
595;SDS011;19946;49.306;11.350;2023-01-09T19:03:04;4.53;;;4.53;;
595;SDS011;19946;49.306;11.350;2023-01-09T19:06:05;6.50;;;6.40;;
595;SDS011;19946;49.306;11.350;2023-01-09T19:09:05;8.10;;;8.00;;
595;SDS011;19946;49.306;11.350;2023-01-09T19:12:06;6.50;;;6.40;;
595;SDS011;19946;49.306;11.350;2023-01-09T19:15:06;4.80;;;4.80;;
595;SDS011;19946;49.306;11.350;2023-01-09T19:18:10;5.10;;;5.10;;
595;SDS011;19946;49.306;11.350;2023-01-09T19:21:12;5.40;;;5.40;;
595;SDS011;19946;49.306;11.350;2023-01-09T19:24:15;6.20;;;6.10;;
595;SDS011;19946;49.306;11.350;2023-01-09T19:27:16;7.87;;;7.77;;
595;SDS011;19946;49.306;11.350;2023-01-09T19:30:16;8.60;;;8.50;;
595;SDS011;19946;49.306;11.350;2023-01-09T19:33:16;5.00;;;5.00;;
595;SDS011;19946;49.306;11.350;2023-01-09T19:36:17;6.10;;;6.00;;
595;SDS011;19946;49.306;11.350;2023-01-09T19:39:17;6.10;;;6.00;;
595;SDS011;19946;49.306;11.350;2023-01-09T19:42:17;4.87;;;4.87;;
595;SDS011;19946;49.306;11.350;2023-01-09T19:45:18;4.90;;;4.90;;
595;SDS011;19946;49.306;11.350;2023-01-09T19:48:18;5.40;;;5.40;;
595;SDS011;19946;49.306;11.350;2023-01-09T19:51:20;4.70;;;4.70;;
595;SDS011;19946;49.306;11.350;2023-01-09T19:54:20;7.60;;;7.50;;
595;SDS011;19946;49.306;11.350;2023-01-09T19:57:21;7.03;;;6.93;;
595;SDS011;19946;49.306;11.350;2023-01-09T20:00:21;5.47;;;5.47;;
595;SDS011;19946;49.306;11.350;2023-01-09T20:03:23;4.30;;;4.30;;
595;SDS011;19946;49.306;11.350;2023-01-09T20:06:24;4.10;;;4.10;;
595;SDS011;19946;49.306;11.350;2023-01-09T20:09:28;4.77;;;4.77;;
595;SDS011;19946;49.306;11.350;2023-01-09T20:12:30;4.47;;;4.47;;
595;SDS011;19946;49.306;11.350;2023-01-09T20:15:31;5.13;;;5.13;;
595;SDS011;19946;49.306;11.350;2023-01-09T20:18:32;5.00;;;5.00;;
595;SDS011;19946;49.306;11.350;2023-01-09T20:21:34;6.17;;;6.07;;
595;SDS011;19946;49.306;11.350;2023-01-09T20:24:35;5.13;;;5.13;;
595;SDS011;19946;49.306;11.350;2023-01-09T20:27:36;3.90;;;3.90;;
595;SDS011;19946;49.306;11.350;2023-01-09T20:30:42;4.40;;;4.40;;
595;SDS011;19946;49.306;11.350;2023-01-09T20:33:45;5.30;;;5.30;;
595;SDS011;19946;49.306;11.350;2023-01-09T20:36:46;6.90;;;6.80;;
595;SDS011;19946;49.306;11.350;2023-01-09T20:39:46;7.23;;;7.13;;
595;SDS011;19946;49.306;11.350;2023-01-09T20:42:46;7.80;;;7.70;;
595;SDS011;19946;49.306;11.350;2023-01-09T20:45:47;5.63;;;5.63;;
595;SDS011;19946;49.306;11.350;2023-01-09T20:48:47;5.23;;;5.23;;
595;SDS011;19946;49.306;11.350;2023-01-09T20:51:49;7.57;;;7.47;;
595;SDS011;19946;49.306;11.350;2023-01-09T20:54:51;6.77;;;6.67;;
595;SDS011;19946;49.306;11.350;2023-01-09T20:57:52;6.70;;;6.60;;
595;SDS011;19946;49.306;11.350;2023-01-09T21:00:52;6.60;;;6.50;;
595;SDS011;19946;49.306;11.350;2023-01-09T21:03:53;6.50;;;6.40;;
595;SDS011;19946;49.306;11.350;2023-01-09T21:06:54;5.13;;;5.13;;
595;SDS011;19946;49.306;11.350;2023-01-09T21:10:12;5.10;;;5.10;;
595;SDS011;19946;49.306;11.350;2023-01-09T21:13:12;3.40;;;3.40;;
595;SDS011;19946;49.306;11.350;2023-01-09T21:16:14;3.80;;;3.80;;
595;SDS011;19946;49.306;11.350;2023-01-09T21:19:28;3.90;;;3.90;;
595;SDS011;19946;49.306;11.350;2023-01-09T21:22:30;5.10;;;5.10;;
595;SDS011;19946;49.306;11.350;2023-01-09T21:25:32;5.50;;;5.50;;
595;SDS011;19946;49.306;11.350;2023-01-09T21:28:32;3.60;;;3.60;;
595;SDS011;19946;49.306;11.350;2023-01-09T21:31:38;4.70;;;4.70;;
595;SDS011;19946;49.306;11.350;2023-01-09T21:34:39;6.60;;;6.50;;
595;SDS011;19946;49.306;11.350;2023-01-09T21:37:39;7.60;;;7.50;;
595;SDS011;19946;49.306;11.350;2023-01-09T21:40:39;6.70;;;6.60;;
595;SDS011;19946;49.306;11.350;2023-01-09T21:43:40;7.03;;;6.93;;
595;SDS011;19946;49.306;11.350;2023-01-09T21:46:59;6.00;;;5.90;;
595;SDS011;19946;49.306;11.350;2023-01-09T21:50:03;6.80;;;6.70;;
595;SDS011;19946;49.306;11.350;2023-01-09T21:53:19;4.80;;;4.80;;
595;SDS011;19946;49.306;11.350;2023-01-09T21:56:20;4.63;;;4.63;;
595;SDS011;19946;49.306;11.350;2023-01-09T21:59:21;5.40;;;5.40;;
595;SDS011;19946;49.306;11.350;2023-01-09T22:02:21;6.97;;;6.87;;
595;SDS011;19946;49.306;11.350;2023-01-09T22:05:22;5.57;;;5.57;;
595;SDS011;19946;49.306;11.350;2023-01-09T22:08:26;6.10;;;6.00;;
595;SDS011;19946;49.306;11.350;2023-01-09T22:11:26;6.70;;;6.60;;
595;SDS011;19946;49.306;11.350;2023-01-09T22:14:28;7.50;;;7.40;;
595;SDS011;19946;49.306;11.350;2023-01-09T22:17:28;7.30;;;7.20;;
595;SDS011;19946;49.306;11.350;2023-01-09T22:20:28;9.00;;;8.90;;
595;SDS011;19946;49.306;11.350;2023-01-09T22:23:29;7.80;;;7.70;;
595;SDS011;19946;49.306;11.350;2023-01-09T22:26:29;5.70;;;5.70;;
595;SDS011;19946;49.306;11.350;2023-01-09T22:29:30;9.60;;;9.50;;
595;SDS011;19946;49.306;11.350;2023-01-09T22:32:30;12.60;;;12.40;;
595;SDS011;19946;49.306;11.350;2023-01-09T22:35:30;8.93;;;8.83;;
595;SDS011;19946;49.306;11.350;2023-01-09T22:38:31;10.10;;;9.90;;
595;SDS011;19946;49.306;11.350;2023-01-09T22:41:31;8.47;;;8.37;;
595;SDS011;19946;49.306;11.350;2023-01-09T22:44:31;10.20;;;10.00;;
595;SDS011;19946;49.306;11.350;2023-01-09T22:47:32;12.63;;;12.43;;
595;SDS011;19946;49.306;11.350;2023-01-09T22:50:32;9.60;;;9.50;;
595;SDS011;19946;49.306;11.350;2023-01-09T22:53:32;9.40;;;9.30;;
595;SDS011;19946;49.306;11.350;2023-01-09T22:56:33;12.20;;;12.00;;
595;SDS011;19946;49.306;11.350;2023-01-09T22:59:34;10.50;;;10.30;;
595;SDS011;19946;49.306;11.350;2023-01-09T23:02:34;10.00;;;9.80;;